sensor_id;sensor_type;location;lat;lon;timestamp;pressure;altitude;pressure_sealevel;temperature;humidity
72409;BME280;60402;48.082;11.628;2023-07-31T00:01:51;95523.47;;;17.10;79.33
72409;BME280;60402;48.082;11.628;2023-07-31T00:04:36;95526.59;;;17.12;80.43
72409;BME280;60402;48.082;11.628;2023-07-31T00:07:22;95515.75;;;17.01;80.47
72409;BME280;60402;48.082;11.628;2023-07-31T00:10:08;95519.09;;;17.00;80.53
72409;BME280;60402;48.082;11.628;2023-07-31T00:12:54;95508.13;;;16.98;80.59
72409;BME280;60402;48.082;11.628;2023-07-31T00:15:39;95517.53;;;16.99;80.41
72409;BME280;60402;48.082;11.628;2023-07-31T00:18:25;95508.41;;;16.85;80.80
72409;BME280;60402;48.082;11.628;2023-07-31T00:21:10;95519.09;;;16.76;80.98
72409;BME280;60402;48.082;11.628;2023-07-31T00:23:56;95515.63;;;16.72;82.08
72409;BME280;60402;48.082;11.628;2023-07-31T00:26:42;95507.84;;;16.72;81.95
72409;BME280;60402;48.082;11.628;2023-07-31T00:29:27;95511.00;;;16.65;82.62
72409;BME280;60402;48.082;11.628;2023-07-31T00:32:13;95515.81;;;16.59;82.99
72409;BME280;60402;48.082;11.628;2023-07-31T00:34:58;95514.25;;;16.58;82.67
72409;BME280;60402;48.082;11.628;2023-07-31T00:37:44;95514.25;;;16.58;82.89
72409;BME280;60402;48.082;11.628;2023-07-31T00:40:34;95490.56;;;16.43;83.59
72409;BME280;60402;48.082;11.628;2023-07-31T00:43:20;95510.31;;;16.46;84.31
72409;BME280;60402;48.082;11.628;2023-07-31T00:46:06;95489.94;;;16.39;84.79
72409;BME280;60402;48.082;11.628;2023-07-31T00:48:52;95500.41;;;16.32;85.68
72409;BME280;60402;48.082;11.628;2023-07-31T00:51:38;95504.38;;;16.35;85.73
72409;BME280;60402;48.082;11.628;2023-07-31T00:54:23;95488.41;;;16.28;86.27
72409;BME280;60402;48.082;11.628;2023-07-31T00:57:09;95511.22;;;16.28;87.19
72409;BME280;60402;48.082;11.628;2023-07-31T00:59:55;95497.00;;;16.19;87.60
72409;BME280;60402;48.082;11.628;2023-07-31T01:02:40;95495.72;;;16.20;87.40
72409;BME280;60402;48.082;11.628;2023-07-31T01:08:44;95492.47;;;16.36;87.06
72409;BME280;60402;48.082;11.628;2023-07-31T01:11:35;95494.66;;;16.42;86.62
72409;BME280;60402;48.082;11.628;2023-07-31T01:14:23;95483.63;;;16.34;87.20
72409;BME280;60402;48.082;11.628;2023-07-31T01:17:09;95478.75;;;16.26;87.78
72409;BME280;60402;48.082;11.628;2023-07-31T01:19:59;95476.06;;;16.22;87.62
72409;BME280;60402;48.082;11.628;2023-07-31T01:26:14;95482.25;;;16.21;88.84
72409;BME280;60402;48.082;11.628;2023-07-31T01:29:10;95480.50;;;16.23;88.37
72409;BME280;60402;48.082;11.628;2023-07-31T01:32:01;95478.63;;;16.20;89.15
72409;BME280;60402;48.082;11.628;2023-07-31T01:34:47;95465.94;;;16.21;89.44
72409;BME280;60402;48.082;11.628;2023-07-31T01:37:34;95466.88;;;16.18;89.95
72409;BME280;60402;48.082;11.628;2023-07-31T01:40:19;95462.78;;;16.19;89.72
72409;BME280;60402;48.082;11.628;2023-07-31T01:43:05;95458.16;;;16.22;89.62
72409;BME280;60402;48.082;11.628;2023-07-31T01:45:51;95462.59;;;16.23;89.12
72409;BME280;60402;48.082;11.628;2023-07-31T01:48:36;95464.00;;;16.27;89.73
72409;BME280;60402;48.082;11.628;2023-07-31T01:51:22;95458.63;;;16.29;89.12
72409;BME280;60402;48.082;11.628;2023-07-31T01:54:08;95462.56;;;16.32;89.79
72409;BME280;60402;48.082;11.628;2023-07-31T01:56:54;95453.09;;;16.26;89.44
72409;BME280;60402;48.082;11.628;2023-07-31T01:59:39;95454.63;;;16.36;88.90
72409;BME280;60402;48.082;11.628;2023-07-31T02:02:25;95448.44;;;16.38;88.81
72409;BME280;60402;48.082;11.628;2023-07-31T02:05:11;95459.53;;;16.35;89.46
72409;BME280;60402;48.082;11.628;2023-07-31T02:07:56;95447.03;;;16.33;88.96
72409;BME280;60402;48.082;11.628;2023-07-31T02:10:42;95448.28;;;16.32;88.90
72409;BME280;60402;48.082;11.628;2023-07-31T02:13:27;95447.50;;;16.31;89.39
72409;BME280;60402;48.082;11.628;2023-07-31T02:16:13;95445.81;;;16.25;90.11
72409;BME280;60402;48.082;11.628;2023-07-31T02:18:59;95443.91;;;16.22;90.61
72409;BME280;60402;48.082;11.628;2023-07-31T02:21:44;95429.53;;;16.16;91.01
72409;BME280;60402;48.082;11.628;2023-07-31T02:24:30;95430.81;;;16.15;91.00
72409;BME280;60402;48.082;11.628;2023-07-31T02:27:17;95424.63;;;16.17;90.81
72409;BME280;60402;48.082;11.628;2023-07-31T02:30:03;95423.03;;;16.16;90.74
72409;BME280;60402;48.082;11.628;2023-07-31T02:32:48;95434.41;;;16.25;90.52
72409;BME280;60402;48.082;11.628;2023-07-31T02:35:34;95433.78;;;16.21;90.51
72409;BME280;60402;48.082;11.628;2023-07-31T02:38:20;95427.31;;;16.20;90.32
72409;BME280;60402;48.082;11.628;2023-07-31T02:41:06;95415.56;;;16.18;90.71
72409;BME280;60402;48.082;11.628;2023-07-31T02:43:51;95416.56;;;16.15;90.73
72409;BME280;60402;48.082;11.628;2023-07-31T02:46:37;95420.38;;;16.12;91.58
72409;BME280;60402;48.082;11.628;2023-07-31T02:49:22;95421.53;;;16.05;91.93
72409;BME280;60402;48.082;11.628;2023-07-31T02:52:08;95406.31;;;15.99;92.23
72409;BME280;60402;48.082;11.628;2023-07-31T02:54:54;95403.38;;;15.84;92.65
72409;BME280;60402;48.082;11.628;2023-07-31T02:57:39;95408.00;;;15.82;93.25
72409;BME280;60402;48.082;11.628;2023-07-31T03:00:25;95405.16;;;15.82;93.18
72409;BME280;60402;48.082;11.628;2023-07-31T03:03:11;95401.69;;;15.78;93.44
72409;BME280;60402;48.082;11.628;2023-07-31T03:05:56;95404.03;;;15.79;93.37
72409;BME280;60402;48.082;11.628;2023-07-31T03:08:42;95396.97;;;15.66;93.81
72409;BME280;60402;48.082;11.628;2023-07-31T03:11:28;95405.97;;;15.73;94.24
72409;BME280;60402;48.082;11.628;2023-07-31T03:14:13;95409.78;;;15.70;94.56
72409;BME280;60402;48.082;11.628;2023-07-31T03:16:59;95404.06;;;15.70;94.26
72409;BME280;60402;48.082;11.628;2023-07-31T03:19:45;95399.16;;;15.62;94.29
72409;BME280;60402;48.082;11.628;2023-07-31T03:22:30;95402.50;;;15.60;95.63
72409;BME280;60402;48.082;11.628;2023-07-31T03:25:16;95400.47;;;15.51;96.05
72409;BME280;60402;48.082;11.628;2023-07-31T03:28:02;95402.38;;;15.64;95.10
72409;BME280;60402;48.082;11.628;2023-07-31T03:30:47;95403.31;;;15.51;95.73
72409;BME280;60402;48.082;11.628;2023-07-31T03:33:33;95403.22;;;15.37;97.37
72409;BME280;60402;48.082;11.628;2023-07-31T03:36:19;95409.38;;;15.35;96.77
72409;BME280;60402;48.082;11.628;2023-07-31T03:39:04;95411.88;;;15.42;96.12
72409;BME280;60402;48.082;11.628;2023-07-31T03:41:50;95410.69;;;15.25;97.88
72409;BME280;60402;48.082;11.628;2023-07-31T03:44:36;95416.66;;;15.27;97.67
72409;BME280;60402;48.082;11.628;2023-07-31T03:47:21;95412.41;;;15.22;97.08
72409;BME280;60402;48.082;11.628;2023-07-31T03:50:07;95413.69;;;15.12;98.85
72409;BME280;60402;48.082;11.628;2023-07-31T03:52:53;95413.19;;;15.23;97.82
72409;BME280;60402;48.082;11.628;2023-07-31T03:55:38;95412.28;;;15.07;99.08
72409;BME280;60402;48.082;11.628;2023-07-31T03:58:24;95421.13;;;15.09;99.24
72409;BME280;60402;48.082;11.628;2023-07-31T04:01:10;95422.88;;;15.16;99.28
72409;BME280;60402;48.082;11.628;2023-07-31T04:03:55;95419.88;;;15.11;100.00
72409;BME280;60402;48.082;11.628;2023-07-31T04:06:41;95418.91;;;15.04;100.00
72409;BME280;60402;48.082;11.628;2023-07-31T04:09:27;95405.94;;;15.03;100.00
72409;BME280;60402;48.082;11.628;2023-07-31T04:12:12;95414.31;;;15.16;100.00
72409;BME280;60402;48.082;11.628;2023-07-31T04:14:58;95412.25;;;15.17;99.94
72409;BME280;60402;48.082;11.628;2023-07-31T04:17:43;95409.56;;;15.13;99.86
72409;BME280;60402;48.082;11.628;2023-07-31T04:20:29;95404.53;;;15.08;100.00
72409;BME280;60402;48.082;11.628;2023-07-31T04:23:15;95408.31;;;15.05;100.00
72409;BME280;60402;48.082;11.628;2023-07-31T04:26:00;95417.63;;;15.05;100.00
72409;BME280;60402;48.082;11.628;2023-07-31T04:28:46;95405.47;;;14.96;100.00
72409;BME280;60402;48.082;11.628;2023-07-31T04:31:31;95413.72;;;14.94;100.00
72409;BME280;60402;48.082;11.628;2023-07-31T04:34:17;95415.63;;;14.97;100.00
72409;BME280;60402;48.082;11.628;2023-07-31T04:37:03;95412.28;;;14.98;100.00
72409;BME280;60402;48.082;11.628;2023-07-31T04:39:48;95408.00;;;15.03;100.00
72409;BME280;60402;48.082;11.628;2023-07-31T04:42:34;95399.94;;;15.11;100.00
72409;BME280;60402;48.082;11.628;2023-07-31T04:45:20;95391.56;;;15.07;100.00
72409;BME280;60402;48.082;11.628;2023-07-31T04:48:05;95402.16;;;15.16;100.00
72409;BME280;60402;48.082;11.628;2023-07-31T04:50:51;95395.47;;;15.28;100.00
72409;BME280;60402;48.082;11.628;2023-07-31T04:53:37;95398.00;;;15.35;100.00
72409;BME280;60402;48.082;11.628;2023-07-31T04:56:22;95391.81;;;15.37;100.00
72409;BME280;60402;48.082;11.628;2023-07-31T04:59:08;95396.50;;;15.58;100.00
72409;BME280;60402;48.082;11.628;2023-07-31T05:01:54;95398.25;;;15.65;99.71
72409;BME280;60402;48.082;11.628;2023-07-31T05:04:39;95395.88;;;15.63;100.00
72409;BME280;60402;48.082;11.628;2023-07-31T05:07:25;95387.13;;;15.76;98.99
72409;BME280;60402;48.082;11.628;2023-07-31T05:10:11;95393.97;;;16.02;98.06
72409;BME280;60402;48.082;11.628;2023-07-31T05:12:56;95392.19;;;16.14;97.59
72409;BME280;60402;48.082;11.628;2023-07-31T05:15:42;95397.28;;;16.34;96.54
72409;BME280;60402;48.082;11.628;2023-07-31T05:18:27;95399.59;;;16.45;95.89
72409;BME280;60402;48.082;11.628;2023-07-31T05:21:13;95385.56;;;16.56;95.36
72409;BME280;60402;48.082;11.628;2023-07-31T05:23:59;95386.72;;;16.73;94.18
72409;BME280;60402;48.082;11.628;2023-07-31T05:26:44;95401.44;;;16.96;93.30
72409;BME280;60402;48.082;11.628;2023-07-31T05:29:30;95396.38;;;17.15;91.85
72409;BME280;60402;48.082;11.628;2023-07-31T05:32:16;95389.59;;;17.27;90.59
72409;BME280;60402;48.082;11.628;2023-07-31T05:35:01;95390.38;;;17.42;90.68
72409;BME280;60402;48.082;11.628;2023-07-31T05:37:47;95389.69;;;17.62;89.28
72409;BME280;60402;48.082;11.628;2023-07-31T05:40:33;95393.13;;;17.66;89.06
72409;BME280;60402;48.082;11.628;2023-07-31T05:43:19;95391.94;;;17.87;87.50
72409;BME280;60402;48.082;11.628;2023-07-31T05:46:04;95386.22;;;18.02;87.57
72409;BME280;60402;48.082;11.628;2023-07-31T05:48:52;95386.88;;;18.12;87.13
72409;BME280;60402;48.082;11.628;2023-07-31T05:51:37;95389.13;;;18.23;85.72
72409;BME280;60402;48.082;11.628;2023-07-31T05:54:23;95387.84;;;18.44;84.36
72409;BME280;60402;48.082;11.628;2023-07-31T05:57:09;95389.19;;;18.63;83.09
72409;BME280;60402;48.082;11.628;2023-07-31T05:59:54;95392.97;;;18.75;82.50
72409;BME280;60402;48.082;11.628;2023-07-31T06:02:40;95382.38;;;18.81;82.01
72409;BME280;60402;48.082;11.628;2023-07-31T06:05:25;95378.50;;;19.05;80.87
72409;BME280;60402;48.082;11.628;2023-07-31T06:08:13;95386.19;;;19.19;80.45
72409;BME280;60402;48.082;11.628;2023-07-31T06:10:59;95375.09;;;19.27;79.37
72409;BME280;60402;48.082;11.628;2023-07-31T06:13:44;95372.72;;;19.51;77.73
72409;BME280;60402;48.082;11.628;2023-07-31T06:16:32;95380.44;;;19.65;77.40
72409;BME280;60402;48.082;11.628;2023-07-31T06:19:18;95383.66;;;19.73;75.47
72409;BME280;60402;48.082;11.628;2023-07-31T06:22:04;95386.47;;;19.99;75.14
72409;BME280;60402;48.082;11.628;2023-07-31T06:24:49;95380.72;;;19.99;75.34
72409;BME280;60402;48.082;11.628;2023-07-31T06:27:35;95386.56;;;20.10;74.28
72409;BME280;60402;48.082;11.628;2023-07-31T06:30:21;95410.94;;;20.26;72.36
72409;BME280;60402;48.082;11.628;2023-07-31T06:33:06;95416.81;;;20.11;72.56
72409;BME280;60402;48.082;11.628;2023-07-31T06:35:52;95412.50;;;20.27;72.71
72409;BME280;60402;48.082;11.628;2023-07-31T06:38:38;95407.00;;;20.24;72.92
72409;BME280;60402;48.082;11.628;2023-07-31T06:41:23;95405.53;;;20.02;74.29
72409;BME280;60402;48.082;11.628;2023-07-31T06:44:09;95411.63;;;20.15;74.11
72409;BME280;60402;48.082;11.628;2023-07-31T06:46:55;95407.28;;;19.94;73.82
72409;BME280;60402;48.082;11.628;2023-07-31T06:49:40;95401.63;;;20.00;73.03
72409;BME280;60402;48.082;11.628;2023-07-31T06:52:26;95405.72;;;19.93;72.51
72409;BME280;60402;48.082;11.628;2023-07-31T06:55:20;95404.19;;;19.98;72.73
72409;BME280;60402;48.082;11.628;2023-07-31T06:58:07;95397.63;;;19.91;72.52
72409;BME280;60402;48.082;11.628;2023-07-31T07:00:52;95381.06;;;20.07;72.43
72409;BME280;60402;48.082;11.628;2023-07-31T07:03:38;95380.13;;;20.27;71.84
72409;BME280;60402;48.082;11.628;2023-07-31T07:06:24;95381.78;;;20.33;70.76
72409;BME280;60402;48.082;11.628;2023-07-31T07:09:09;95376.38;;;20.47;70.37
72409;BME280;60402;48.082;11.628;2023-07-31T07:11:55;95379.94;;;20.36;70.18
72409;BME280;60402;48.082;11.628;2023-07-31T07:14:40;95385.13;;;20.32;69.61
72409;BME280;60402;48.082;11.628;2023-07-31T07:17:28;95385.41;;;20.71;68.75
72409;BME280;60402;48.082;11.628;2023-07-31T07:20:14;95380.25;;;20.86;68.19
72409;BME280;60402;48.082;11.628;2023-07-31T07:22:59;95380.13;;;21.18;66.82
72409;BME280;60402;48.082;11.628;2023-07-31T07:25:45;95385.97;;;21.52;65.57
72409;BME280;60402;48.082;11.628;2023-07-31T07:28:31;95387.28;;;21.73;64.07
72409;BME280;60402;48.082;11.628;2023-07-31T07:31:20;95375.47;;;22.78;61.56
72409;BME280;60402;48.082;11.628;2023-07-31T07:34:06;95381.28;;;23.30;58.07
72409;BME280;60402;48.082;11.628;2023-07-31T07:36:51;95381.41;;;23.55;57.67
72409;BME280;60402;48.082;11.628;2023-07-31T07:39:37;95383.25;;;24.29;54.97
72409;BME280;60402;48.082;11.628;2023-07-31T07:42:22;95380.59;;;24.61;53.68
72409;BME280;60402;48.082;11.628;2023-07-31T07:45:08;95375.72;;;24.99;53.04
72409;BME280;60402;48.082;11.628;2023-07-31T07:47:54;95374.75;;;24.67;52.63
72409;BME280;60402;48.082;11.628;2023-07-31T07:50:40;95370.53;;;24.43;53.81
72409;BME280;60402;48.082;11.628;2023-07-31T07:53:25;95372.09;;;24.69;53.63
72409;BME280;60402;48.082;11.628;2023-07-31T07:56:11;95360.38;;;24.61;53.02
72409;BME280;60402;48.082;11.628;2023-07-31T07:58:57;95356.66;;;24.42;53.78
72409;BME280;60402;48.082;11.628;2023-07-31T08:01:42;95353.00;;;24.06;53.41
72409;BME280;60402;48.082;11.628;2023-07-31T08:04:28;95351.38;;;24.10;54.22
72409;BME280;60402;48.082;11.628;2023-07-31T08:07:14;95335.22;;;24.56;53.96
72409;BME280;60402;48.082;11.628;2023-07-31T08:10:00;95340.91;;;26.90;46.74
72409;BME280;60402;48.082;11.628;2023-07-31T08:12:45;95338.44;;;28.37;43.75
72409;BME280;60402;48.082;11.628;2023-07-31T08:15:31;95335.00;;;30.12;39.66
72409;BME280;60402;48.082;11.628;2023-07-31T08:18:16;95333.13;;;30.75;37.59
72409;BME280;60402;48.082;11.628;2023-07-31T08:21:03;95337.03;;;30.78;37.04
72409;BME280;60402;48.082;11.628;2023-07-31T08:23:48;95343.44;;;30.84;36.36
72409;BME280;60402;48.082;11.628;2023-07-31T08:26:34;95339.44;;;30.13;37.12
72409;BME280;60402;48.082;11.628;2023-07-31T08:29:20;95352.31;;;29.66;38.42
72409;BME280;60402;48.082;11.628;2023-07-31T08:32:06;95333.88;;;31.07;36.03
72409;BME280;60402;48.082;11.628;2023-07-31T08:34:51;95336.44;;;30.87;35.67
72409;BME280;60402;48.082;11.628;2023-07-31T08:37:37;95339.47;;;29.17;38.06
72409;BME280;60402;48.082;11.628;2023-07-31T08:40:23;95342.63;;;29.35;38.56
72409;BME280;60402;48.082;11.628;2023-07-31T08:43:09;95337.47;;;27.66;41.43
72409;BME280;60402;48.082;11.628;2023-07-31T08:45:55;95337.44;;;26.52;44.22
72409;BME280;60402;48.082;11.628;2023-07-31T08:48:44;95337.19;;;26.05;45.84
72409;BME280;60402;48.082;11.628;2023-07-31T08:51:30;95334.03;;;25.70;45.56
72409;BME280;60402;48.082;11.628;2023-07-31T08:54:16;95333.19;;;25.19;47.34
72409;BME280;60402;48.082;11.628;2023-07-31T08:57:02;95332.06;;;24.79;48.86
72409;BME280;60402;48.082;11.628;2023-07-31T08:59:49;95338.28;;;24.64;49.86
72409;BME280;60402;48.082;11.628;2023-07-31T09:02:42;95336.84;;;24.21;50.03
72409;BME280;60402;48.082;11.628;2023-07-31T09:05:30;95334.81;;;23.86;51.23
72409;BME280;60402;48.082;11.628;2023-07-31T09:08:18;95336.97;;;23.33;52.19
72409;BME280;60402;48.082;11.628;2023-07-31T09:11:04;95338.00;;;22.89;54.80
72409;BME280;60402;48.082;11.628;2023-07-31T09:13:51;95333.50;;;22.93;54.54
72409;BME280;60402;48.082;11.628;2023-07-31T09:16:54;95336.09;;;23.03;55.31
72409;BME280;60402;48.082;11.628;2023-07-31T09:19:40;95336.38;;;22.99;56.46
72409;BME280;60402;48.082;11.628;2023-07-31T09:22:32;95328.06;;;23.31;54.47
72409;BME280;60402;48.082;11.628;2023-07-31T09:25:23;95322.38;;;23.67;53.98
72409;BME280;60402;48.082;11.628;2023-07-31T09:28:10;95321.38;;;23.89;53.19
72409;BME280;60402;48.082;11.628;2023-07-31T09:30:56;95312.88;;;24.02;52.45
72409;BME280;60402;48.082;11.628;2023-07-31T09:33:54;95325.03;;;24.50;51.05
72409;BME280;60402;48.082;11.628;2023-07-31T09:36:49;95315.56;;;24.73;50.51
72409;BME280;60402;48.082;11.628;2023-07-31T09:39:48;95317.72;;;24.92;49.42
72409;BME280;60402;48.082;11.628;2023-07-31T09:42:34;95308.41;;;25.23;48.66
72409;BME280;60402;48.082;11.628;2023-07-31T09:45:20;95307.69;;;25.55;47.46
72409;BME280;60402;48.082;11.628;2023-07-31T09:48:12;95303.66;;;25.02;48.12
72409;BME280;60402;48.082;11.628;2023-07-31T09:51:04;95305.00;;;25.01;48.80
72409;BME280;60402;48.082;11.628;2023-07-31T09:53:50;95297.41;;;25.22;48.46
72409;BME280;60402;48.082;11.628;2023-07-31T09:56:37;95300.56;;;24.99;47.31
72409;BME280;60402;48.082;11.628;2023-07-31T09:59:24;95296.53;;;24.84;48.22
72409;BME280;60402;48.082;11.628;2023-07-31T10:02:15;95291.03;;;25.05;48.18
72409;BME280;60402;48.082;11.628;2023-07-31T10:05:06;95279.69;;;25.07;48.06
72409;BME280;60402;48.082;11.628;2023-07-31T10:07:57;95262.84;;;25.11;48.21
72409;BME280;60402;48.082;11.628;2023-07-31T10:10:44;95271.50;;;24.48;46.88
72409;BME280;60402;48.082;11.628;2023-07-31T10:13:30;95272.38;;;24.62;49.00
72409;BME280;60402;48.082;11.628;2023-07-31T10:16:16;95255.50;;;24.47;50.46
72409;BME280;60402;48.082;11.628;2023-07-31T10:19:02;95240.59;;;24.62;49.33
72409;BME280;60402;48.082;11.628;2023-07-31T10:21:49;95229.25;;;24.45;48.60
72409;BME280;60402;48.082;11.628;2023-07-31T10:24:35;95242.16;;;24.63;48.40
72409;BME280;60402;48.082;11.628;2023-07-31T10:27:22;95226.78;;;24.31;47.66
72409;BME280;60402;48.082;11.628;2023-07-31T10:30:10;95230.22;;;24.29;47.71
72409;BME280;60402;48.082;11.628;2023-07-31T10:32:57;95229.66;;;24.31;47.46
72409;BME280;60402;48.082;11.628;2023-07-31T10:35:43;95237.53;;;24.30;48.04
72409;BME280;60402;48.082;11.628;2023-07-31T10:38:29;95224.13;;;24.33;47.23
72409;BME280;60402;48.082;11.628;2023-07-31T10:41:14;95224.09;;;24.38;47.60
72409;BME280;60402;48.082;11.628;2023-07-31T10:44:03;95216.25;;;24.58;47.38
72409;BME280;60402;48.082;11.628;2023-07-31T10:46:54;95230.38;;;24.61;46.91
72409;BME280;60402;48.082;11.628;2023-07-31T10:49:40;95230.22;;;24.72;46.59
72409;BME280;60402;48.082;11.628;2023-07-31T10:52:34;95226.94;;;24.82;45.97
72409;BME280;60402;48.082;11.628;2023-07-31T10:55:26;95205.94;;;24.81;46.58
72409;BME280;60402;48.082;11.628;2023-07-31T10:58:13;95216.72;;;24.81;47.41
72409;BME280;60402;48.082;11.628;2023-07-31T11:01:01;95225.69;;;24.77;46.19
72409;BME280;60402;48.082;11.628;2023-07-31T11:03:48;95214.38;;;24.79;46.03
72409;BME280;60402;48.082;11.628;2023-07-31T11:06:36;95221.28;;;25.14;46.71
72409;BME280;60402;48.082;11.628;2023-07-31T11:09:21;95207.41;;;25.07;45.44
72409;BME280;60402;48.082;11.628;2023-07-31T11:12:07;95195.63;;;24.86;45.82
72409;BME280;60402;48.082;11.628;2023-07-31T11:14:57;95202.69;;;25.09;43.99
72409;BME280;60402;48.082;11.628;2023-07-31T11:17:42;95192.34;;;24.57;46.54
72409;BME280;60402;48.082;11.628;2023-07-31T11:20:30;95196.31;;;24.92;46.12
72409;BME280;60402;48.082;11.628;2023-07-31T11:23:17;95192.75;;;24.86;46.07
72409;BME280;60402;48.082;11.628;2023-07-31T11:26:05;95198.59;;;24.80;46.85
72409;BME280;60402;48.082;11.628;2023-07-31T11:28:51;95196.13;;;25.09;47.36
72409;BME280;60402;48.082;11.628;2023-07-31T11:31:44;95194.28;;;25.06;46.62
72409;BME280;60402;48.082;11.628;2023-07-31T11:34:30;95183.34;;;25.36;47.83
72409;BME280;60402;48.082;11.628;2023-07-31T11:37:16;95179.56;;;25.09;47.35
72409;BME280;60402;48.082;11.628;2023-07-31T11:40:02;95171.56;;;24.96;45.87
72409;BME280;60402;48.082;11.628;2023-07-31T11:42:48;95170.31;;;24.54;48.19
72409;BME280;60402;48.082;11.628;2023-07-31T11:45:34;95173.00;;;24.71;47.05
72409;BME280;60402;48.082;11.628;2023-07-31T11:48:27;95159.84;;;24.89;46.99
72409;BME280;60402;48.082;11.628;2023-07-31T11:51:14;95155.47;;;24.44;46.48
72409;BME280;60402;48.082;11.628;2023-07-31T11:54:01;95146.34;;;24.59;46.92
72409;BME280;60402;48.082;11.628;2023-07-31T11:56:47;95151.44;;;24.72;48.05
72409;BME280;60402;48.082;11.628;2023-07-31T11:59:35;95149.41;;;24.86;46.59
72409;BME280;60402;48.082;11.628;2023-07-31T12:02:21;95143.38;;;24.84;45.73
72409;BME280;60402;48.082;11.628;2023-07-31T12:05:11;95126.34;;;24.99;45.97
72409;BME280;60402;48.082;11.628;2023-07-31T12:07:57;95126.81;;;25.03;45.10
72409;BME280;60402;48.082;11.628;2023-07-31T12:10:43;95122.50;;;25.10;46.01
72409;BME280;60402;48.082;11.628;2023-07-31T12:13:31;95121.84;;;25.17;44.60
72409;BME280;60402;48.082;11.628;2023-07-31T12:16:17;95108.38;;;24.87;44.87
72409;BME280;60402;48.082;11.628;2023-07-31T12:19:03;95106.16;;;25.12;44.96
72409;BME280;60402;48.082;11.628;2023-07-31T12:21:49;95099.59;;;25.12;44.90
72409;BME280;60402;48.082;11.628;2023-07-31T12:24:35;95094.44;;;25.05;43.74
72409;BME280;60402;48.082;11.628;2023-07-31T12:27:23;95081.19;;;25.28;44.65
72409;BME280;60402;48.082;11.628;2023-07-31T12:30:29;95102.25;;;25.42;43.39
72409;BME280;60402;48.082;11.628;2023-07-31T12:33:15;95084.19;;;25.36;43.69
72409;BME280;60402;48.082;11.628;2023-07-31T12:36:02;95075.88;;;25.59;43.74
72409;BME280;60402;48.082;11.628;2023-07-31T12:38:52;95068.34;;;25.56;43.57
72409;BME280;60402;48.082;11.628;2023-07-31T12:41:38;95076.69;;;25.72;42.86
72409;BME280;60402;48.082;11.628;2023-07-31T12:44:23;95073.25;;;25.61;43.41
72409;BME280;60402;48.082;11.628;2023-07-31T12:47:09;95065.09;;;25.59;42.90
72409;BME280;60402;48.082;11.628;2023-07-31T12:49:55;95069.25;;;25.77;43.75
72409;BME280;60402;48.082;11.628;2023-07-31T12:52:40;95052.91;;;25.93;43.56
72409;BME280;60402;48.082;11.628;2023-07-31T12:55:26;95055.00;;;25.92;43.01
72409;BME280;60402;48.082;11.628;2023-07-31T12:58:12;95047.19;;;26.00;41.84
72409;BME280;60402;48.082;11.628;2023-07-31T13:00:57;95042.88;;;25.94;42.56
72409;BME280;60402;48.082;11.628;2023-07-31T13:03:43;95038.19;;;25.91;42.36
72409;BME280;60402;48.082;11.628;2023-07-31T13:06:28;95053.69;;;25.93;42.90
72409;BME280;60402;48.082;11.628;2023-07-31T13:09:14;95044.56;;;25.76;43.47
72409;BME280;60402;48.082;11.628;2023-07-31T13:12:03;95049.78;;;25.91;42.21
72409;BME280;60402;48.082;11.628;2023-07-31T13:14:49;95053.44;;;25.78;42.11
72409;BME280;60402;48.082;11.628;2023-07-31T13:17:35;95040.63;;;25.73;41.14
72409;BME280;60402;48.082;11.628;2023-07-31T13:20:21;95042.09;;;25.80;42.13
72409;BME280;60402;48.082;11.628;2023-07-31T13:23:06;95039.66;;;25.84;41.05
72409;BME280;60402;48.082;11.628;2023-07-31T13:25:52;95052.22;;;26.00;41.27
72409;BME280;60402;48.082;11.628;2023-07-31T13:28:37;95050.41;;;26.10;40.98
72409;BME280;60402;48.082;11.628;2023-07-31T13:31:23;95041.41;;;25.87;42.40
72409;BME280;60402;48.082;11.628;2023-07-31T13:34:09;95029.59;;;25.72;41.67
72409;BME280;60402;48.082;11.628;2023-07-31T13:36:54;95039.97;;;25.94;42.28
72409;BME280;60402;48.082;11.628;2023-07-31T13:39:41;95039.41;;;25.69;41.37
72409;BME280;60402;48.082;11.628;2023-07-31T13:42:27;95032.50;;;25.98;42.39
72409;BME280;60402;48.082;11.628;2023-07-31T13:45:14;95028.13;;;26.18;41.74
72409;BME280;60402;48.082;11.628;2023-07-31T13:48:00;95019.28;;;25.90;41.17
72409;BME280;60402;48.082;11.628;2023-07-31T13:50:45;95011.34;;;26.04;42.68
72409;BME280;60402;48.082;11.628;2023-07-31T13:53:31;95002.53;;;26.09;41.76
72409;BME280;60402;48.082;11.628;2023-07-31T13:56:17;95000.34;;;25.89;42.34
72409;BME280;60402;48.082;11.628;2023-07-31T13:59:03;95013.38;;;25.82;43.47
72409;BME280;60402;48.082;11.628;2023-07-31T14:01:49;95000.22;;;25.94;41.68
72409;BME280;60402;48.082;11.628;2023-07-31T14:04:35;94992.56;;;25.84;42.15
72409;BME280;60402;48.082;11.628;2023-07-31T14:07:21;94993.44;;;25.65;42.13
72409;BME280;60402;48.082;11.628;2023-07-31T14:10:08;94988.88;;;25.43;42.03
72409;BME280;60402;48.082;11.628;2023-07-31T14:12:54;94985.22;;;25.43;42.43
72409;BME280;60402;48.082;11.628;2023-07-31T14:15:42;94990.69;;;25.60;41.87
72409;BME280;60402;48.082;11.628;2023-07-31T14:18:28;94991.22;;;25.58;41.59
72409;BME280;60402;48.082;11.628;2023-07-31T14:21:14;95008.69;;;25.66;40.96
72409;BME280;60402;48.082;11.628;2023-07-31T14:24:00;95004.47;;;25.67;41.12
72409;BME280;60402;48.082;11.628;2023-07-31T14:26:46;94995.66;;;25.59;40.81
72409;BME280;60402;48.082;11.628;2023-07-31T14:29:32;94990.44;;;25.58;40.75
72409;BME280;60402;48.082;11.628;2023-07-31T14:32:17;94991.78;;;25.57;41.16
72409;BME280;60402;48.082;11.628;2023-07-31T14:35:03;94974.09;;;25.47;42.28
72409;BME280;60402;48.082;11.628;2023-07-31T14:37:49;94979.41;;;25.30;43.54